Time;durP1;ratioP1;P1;durP2;ratioP2;P2;SDS_P1;SDS_P2;PMS_P1;PMS_P2;Temp;Humidity;BMP_temperature;BMP_pressure;BME280_temperature;BME280_humidity;BME280_pressure;Samples;Min_cycle;Max_cycle;Signal;HPM_P1;HPM_P2
2023/05/15 00:00:11;;;;;;;5.00;4.32;;;19.50;41.00;;;;;;5040210;28;20021;-72
2023/05/15 00:02:37;;;;;;;5.15;4.10;;;19.40;41.20;;;;;;5041431;28;20034;-72
2023/05/15 00:05:04;;;;;;;4.55;4.00;;;19.40;41.30;;;;;;5049459;28;20052;-72
2023/05/15 00:07:30;;;;;;;4.43;3.70;;;19.40;42.20;;;;;;5040217;28;20033;-72
2023/05/15 00:09:55;;;;;;;4.78;4.00;;;19.30;41.70;;;;;;5055663;28;20025;-72
2023/05/15 00:12:21;;;;;;;5.00;3.90;;;19.30;41.80;;;;;;5047472;28;20030;-72
2023/05/15 00:14:46;;;;;;;5.10;4.10;;;19.20;42.10;;;;;;5044832;28;20033;-72
2023/05/15 00:17:12;;;;;;;5.85;3.63;;;19.20;42.30;;;;;;5045043;28;20430;-72
2023/05/15 00:19:38;;;;;;;4.75;3.67;;;19.20;42.40;;;;;;5052091;28;20039;-70
2023/05/15 00:22:04;;;;;;;4.47;3.90;;;19.10;42.50;;;;;;5050851;28;20084;-71
2023/05/15 00:24:29;;;;;;;4.50;3.80;;;19.10;42.70;;;;;;5044737;28;20033;-71
2023/05/15 00:26:55;;;;;;;4.63;3.60;;;19.00;42.90;;;;;;5040045;28;20033;-71
2023/05/15 00:29:21;;;;;;;4.45;3.45;;;18.90;43.00;;;;;;5042744;28;20029;-71
2023/05/15 00:31:46;;;;;;;4.70;4.20;;;18.90;43.20;;;;;;5055781;28;20091;-71
2023/05/15 00:34:12;;;;;;;5.65;4.00;;;18.90;43.30;;;;;;5054880;28;20078;-72
2023/05/15 00:36:37;;;;;;;4.47;3.70;;;18.80;43.40;;;;;;5053637;28;20033;-71
2023/05/15 00:39:03;;;;;;;4.55;3.92;;;18.80;43.60;;;;;;5054766;28;20041;-71
2023/05/15 00:41:31;;;;;;;5.55;3.60;;;18.80;43.60;;;;;;5053356;28;20037;-71
2023/05/15 00:43:59;;;;;;;4.65;3.70;;;18.80;43.70;;;;;;5049988;28;20082;-70
2023/05/15 00:46:26;;;;;;;4.50;3.83;;;18.80;43.90;;;;;;5043760;28;20025;-70
2023/05/15 00:48:52;;;;;;;5.00;3.55;;;18.70;43.90;;;;;;5054707;28;20033;-70
2023/05/15 00:51:18;;;;;;;5.03;4.13;;;18.60;44.00;;;;;;5044174;28;20032;-70
2023/05/15 00:53:44;;;;;;;6.35;4.13;;;18.60;44.10;;;;;;5035374;28;20025;-70
2023/05/15 00:56:11;;;;;;;5.57;4.45;;;18.60;44.20;;;;;;5035077;28;20112;-70
2023/05/15 00:58:37;;;;;;;5.18;4.05;;;18.50;44.30;;;;;;5037043;28;20025;-70
2023/05/15 01:01:03;;;;;;;4.50;3.90;;;18.50;44.40;;;;;;5053579;28;20434;-72
2023/05/15 01:03:28;;;;;;;4.97;4.03;;;18.50;44.50;;;;;;5040141;28;20033;-70
2023/05/15 01:05:54;;;;;;;5.75;4.18;;;18.50;44.70;;;;;;5048583;28;20033;-71
2023/05/15 01:08:46;;;;;;;5.32;4.22;;;18.40;44.70;;;;;;5051475;28;20028;-71
2023/05/15 01:11:14;;;;;;;5.43;4.35;;;18.40;45.50;;;;;;5053846;28;20076;-72
2023/05/15 01:13:39;;;;;;;6.10;4.25;;;18.40;45.00;;;;;;5042094;28;20037;-72
2023/05/15 01:16:06;;;;;;;6.82;4.53;;;18.40;45.10;;;;;;5045419;28;20490;-72
2023/05/15 01:18:32;;;;;;;7.28;4.50;;;18.30;45.10;;;;;;5039838;28;20045;-72
2023/05/15 01:21:01;;;;;;;6.15;4.20;;;18.30;45.10;;;;;;5034507;28;20034;-72
2023/05/15 01:23:37;;;;;;;6.40;4.28;;;18.30;45.20;;;;;;5045656;28;20112;-72
2023/05/15 01:26:31;;;;;;;6.35;3.90;;;18.30;45.30;;;;;;5041137;28;20060;-72
2023/05/15 01:29:46;;;;;;;6.60;3.92;;;18.30;45.80;;;;;;5044356;28;20035;-72
2023/05/15 01:32:19;;;;;;;6.88;4.30;;;18.20;45.80;;;;;;5006100;28;20131;-72
2023/05/15 01:34:48;;;;;;;6.97;4.10;;;18.30;45.40;;;;;;5033189;28;20022;-72
2023/05/15 01:37:20;;;;;;;4.80;3.53;;;18.20;45.30;;;;;;5034224;28;20025;-72
2023/05/15 01:39:52;;;;;;;6.15;3.78;;;18.20;45.30;;;;;;5035087;28;20038;-72
2023/05/15 01:42:19;;;;;;;4.00;3.58;;;18.20;45.40;;;;;;5034258;28;20032;-72
2023/05/15 01:44:54;;;;;;;5.03;3.10;;;18.20;45.50;;;;;;5051367;28;20108;-72
2023/05/15 01:47:36;;;;;;;3.28;2.80;;;18.20;45.30;;;;;;5041329;28;20029;-72
2023/05/15 01:50:04;;;;;;;3.42;2.90;;;18.20;45.00;;;;;;5050854;28;20025;-72
2023/05/15 01:52:35;;;;;;;3.10;2.80;;;18.20;44.80;;;;;;5048623;28;20029;-72
2023/05/15 01:55:03;;;;;;;3.50;2.80;;;18.20;44.60;;;;;;5041710;28;20120;-70
2023/05/15 01:57:30;;;;;;;4.68;2.80;;;18.20;44.50;;;;;;5053709;28;20040;-72
2023/05/15 01:59:57;;;;;;;3.67;2.45;;;18.20;44.50;;;;;;5033714;28;20072;-72
2023/05/15 02:02:24;;;;;;;3.42;3.10;;;18.20;44.30;;;;;;5047935;28;20356;-72
2023/05/15 02:04:51;;;;;;;3.72;3.33;;;18.20;44.30;;;;;;5051918;28;20032;-72
2023/05/15 02:07:17;;;;;;;4.63;4.03;;;18.20;44.30;;;;;;5053509;28;20025;-72
2023/05/15 02:09:43;;;;;;;3.80;3.30;;;18.20;44.30;;;;;;5043667;28;20467;-72
2023/05/15 02:12:10;;;;;;;4.75;2.97;;;18.10;44.30;;;;;;5033552;28;20029;-72
2023/05/15 02:14:37;;;;;;;3.65;2.92;;;18.10;44.40;;;;;;5046315;28;20022;-71
2023/05/15 02:17:03;;;;;;;3.25;2.90;;;18.10;44.40;;;;;;5042668;28;20025;-71
2023/05/15 02:19:29;;;;;;;4.25;3.47;;;18.10;44.40;;;;;;5052722;28;20083;-71
2023/05/15 02:21:54;;;;;;;4.32;3.55;;;18.10;44.60;;;;;;5037986;28;20037;-70
2023/05/15 02:24:20;;;;;;;4.10;3.38;;;18.10;44.70;;;;;;5049786;28;20025;-71
2023/05/15 02:26:45;;;;;;;5.25;4.15;;;18.10;44.90;;;;;;5033599;28;20029;-71
2023/05/15 02:29:41;;;;;;;4.80;3.80;;;18.10;45.10;;;;;;5040516;28;20020;-71
2023/05/15 02:32:31;;;;;;;5.95;4.00;;;18.00;45.60;;;;;;5044778;28;20041;-71
2023/05/15 02:35:05;;;;;;;5.47;3.70;;;18.00;45.50;;;;;;5035400;28;20032;-72
2023/05/15 02:37:33;;;;;;;;;;;18.00;45.50;;;;;;5035363;28;20033;-71
2023/05/15 02:40:01;;;;;;;4.78;3.75;;;18.00;46.40;;;;;;5033271;28;19917;-71
2023/05/15 02:42:28;;;;;;;4.93;3.47;;;18.00;45.40;;;;;;5033680;28;20091;-71
2023/05/15 02:44:56;;;;;;;4.32;3.05;;;18.00;45.50;;;;;;5033390;28;20108;-71
2023/05/15 02:47:23;;;;;;;3.97;3.30;;;18.00;45.40;;;;;;5033691;28;20029;-71
2023/05/15 02:49:50;;;;;;;7.85;3.25;;;18.10;45.40;;;;;;5043507;28;20037;-71
2023/05/15 02:52:16;;;;;;;4.90;3.10;;;18.00;45.50;;;;;;5038693;28;20025;-71
2023/05/15 02:54:42;;;;;;;4.40;3.40;;;18.00;45.40;;;;;;5048565;28;20025;-71
2023/05/15 02:57:08;;;;;;;3.83;3.40;;;18.00;45.50;;;;;;5048897;28;20498;-71
2023/05/15 02:59:34;;;;;;;4.55;3.65;;;18.00;45.60;;;;;;5056539;28;20040;-71
2023/05/15 03:01:59;;;;;;;4.70;3.60;;;18.00;45.60;;;;;;5055834;28;20047;-71
2023/05/15 03:04:25;;;;;;;3.72;3.30;;;18.10;45.60;;;;;;5056785;28;20032;-71
2023/05/15 03:06:51;;;;;;;4.82;3.50;;;18.10;45.60;;;;;;5037476;28;20105;-71
2023/05/15 03:09:16;;;;;;;10.98;9.52;;;18.10;45.60;;;;;;5038158;28;20032;-71
2023/05/15 03:11:42;;;;;;;17.08;14.63;;;18.10;45.60;;;;;;5037195;28;20456;-71
2023/05/15 03:14:08;;;;;;;15.93;12.73;;;18.20;45.70;;;;;;5036908;28;20041;-71
2023/05/15 03:16:35;;;;;;;21.60;16.77;;;18.20;45.70;;;;;;5045816;28;20458;-71
2023/05/15 03:19:01;;;;;;;15.45;11.50;;;18.20;45.70;;;;;;5036605;28;20091;-71
2023/05/15 03:21:27;;;;;;;10.63;8.75;;;18.20;45.70;;;;;;5045527;28;20025;-71
2023/05/15 03:23:52;;;;;;;8.52;6.85;;;18.30;45.80;;;;;;5045308;28;20426;-74
2023/05/15 03:26:18;;;;;;;9.90;5.78;;;18.30;45.80;;;;;;5045545;28;20104;-74
2023/05/15 03:28:43;;;;;;;5.53;4.70;;;18.30;45.90;;;;;;5041897;28;20037;-74
2023/05/15 03:31:09;;;;;;;6.13;4.65;;;18.30;45.90;;;;;;5041255;28;20045;-73
2023/05/15 03:33:35;;;;;;;5.70;4.00;;;18.30;46.00;;;;;;5054877;28;20021;-73
2023/05/15 03:36:00;;;;;;;4.18;3.58;;;18.30;46.00;;;;;;5055602;28;20104;-74
2023/05/15 03:38:26;;;;;;;5.53;3.65;;;18.30;46.00;;;;;;5056545;28;20067;-73
2023/05/15 03:40:52;;;;;;;5.22;3.63;;;18.30;46.00;;;;;;5056628;28;20083;-73
2023/05/15 03:43:17;;;;;;;4.35;3.65;;;18.20;46.00;;;;;;5056526;28;20134;-73
2023/05/15 03:45:43;;;;;;;6.15;4.03;;;18.20;46.10;;;;;;5056509;28;20032;-73
2023/05/15 03:48:08;;;;;;;5.07;3.95;;;18.10;46.20;;;;;;5056158;28;20379;-73
2023/05/15 03:50:34;;;;;;;5.75;4.00;;;18.20;46.30;;;;;;5056125;28;20459;-73
2023/05/15 03:53:00;;;;;;;4.53;4.03;;;18.20;46.50;;;;;;5056079;28;20375;-73
2023/05/15 03:55:25;;;;;;;4.63;3.88;;;18.20;46.50;;;;;;5056040;28;20025;-73
2023/05/15 03:57:51;;;;;;;6.03;4.23;;;18.20;46.60;;;;;;5056267;28;20096;-74
2023/05/15 04:00:17;;;;;;;6.47;4.18;;;18.30;46.80;;;;;;5055917;28;20263;-73
2023/05/15 04:02:43;;;;;;;6.90;5.80;;;18.30;46.80;;;;;;5055631;28;20071;-73
2023/05/15 04:05:09;;;;;;;16.10;10.55;;;18.30;46.90;;;;;;5054335;28;20021;-73
2023/05/15 04:07:36;;;;;;;8.45;7.07;;;18.30;47.00;;;;;;5056175;28;20033;-74
2023/05/15 04:10:02;;;;;;;6.97;5.28;;;18.30;47.00;;;;;;5055994;28;20367;-73
2023/05/15 04:12:28;;;;;;;7.65;4.78;;;18.40;47.00;;;;;;5054746;28;20386;-73
2023/05/15 04:15:23;;;;;;;5.00;4.13;;;18.40;46.90;;;;;;5056391;28;20064;-73
2023/05/15 04:17:50;;;;;;;5.80;3.58;;;18.40;47.10;;;;;;5054832;28;20554;-73
2023/05/15 04:20:21;;;;;;;4.82;3.80;;;18.40;46.80;;;;;;5055699;28;20043;-73
2023/05/15 04:22:47;;;;;;;4.45;3.63;;;18.40;46.80;;;;;;5054461;28;20029;-74
2023/05/15 04:25:16;;;;;;;4.32;3.70;;;18.40;46.80;;;;;;5055684;28;20074;-73
2023/05/15 04:27:43;;;;;;;5.97;4.13;;;18.40;46.90;;;;;;5055469;28;20032;-73
2023/05/15 04:30:10;;;;;;;5.50;3.90;;;18.40;47.00;;;;;;5055618;28;20033;-73
2023/05/15 04:32:38;;;;;;;6.70;3.85;;;18.40;47.60;;;;;;5055531;28;20041;-74
2023/05/15 04:35:08;;;;;;;4.60;4.18;;;18.50;47.00;;;;;;5055534;28;20039;-74
2023/05/15 04:37:33;;;;;;;5.45;3.60;;;18.60;47.00;;;;;;5055366;28;20025;-74
2023/05/15 04:39:59;;;;;;;4.22;3.50;;;18.60;47.00;;;;;;5053710;28;20062;-74
2023/05/15 04:42:25;;;;;;;4.40;3.13;;;18.60;47.10;;;;;;5055134;28;20455;-73
2023/05/15 04:44:51;;;;;;;4.93;3.55;;;18.70;47.20;;;;;;5055192;28;20029;-74
2023/05/15 04:47:16;;;;;;;5.50;3.72;;;18.70;47.10;;;;;;5055332;28;20078;-74
2023/05/15 04:49:42;;;;;;;5.20;4.07;;;18.80;47.20;;;;;;5055233;28;20478;-75
2023/05/15 04:52:08;;;;;;;4.00;2.90;;;18.80;47.80;;;;;;5055289;28;20466;-73
2023/05/15 04:54:33;;;;;;;6.10;3.30;;;18.90;47.10;;;;;;5053379;28;20433;-73
2023/05/15 04:57:00;;;;;;;4.38;3.30;;;19.00;47.10;;;;;;5053676;28;20028;-73
2023/05/15 04:59:27;;;;;;;4.18;3.00;;;19.00;47.10;;;;;;5054796;28;20025;-74
2023/05/15 05:01:53;;;;;;;3.80;3.20;;;19.00;47.00;;;;;;5053547;28;20064;-74
2023/05/15 05:04:19;;;;;;;5.35;3.28;;;19.10;47.00;;;;;;5053533;28;20056;-74
2023/05/15 05:06:45;;;;;;;5.15;3.22;;;19.20;47.00;;;;;;5054874;28;20365;-74
2023/05/15 05:09:11;;;;;;;4.75;3.13;;;19.20;47.60;;;;;;5054823;28;20072;-73
2023/05/15 05:11:38;;;;;;;4.40;3.10;;;19.30;46.90;;;;;;5054860;28;20414;-72
2023/05/15 05:14:04;;;;;;;3.22;2.85;;;19.40;46.90;;;;;;5053805;28;20048;-73
2023/05/15 05:16:30;;;;;;;3.45;2.88;;;19.40;46.80;;;;;;5051283;28;20021;-73
2023/05/15 05:18:55;;;;;;;5.35;3.20;;;19.50;46.80;;;;;;5053837;28;20031;-75
2023/05/15 05:21:21;;;;;;;5.07;2.92;;;19.60;46.70;;;;;;5053155;28;20059;-72
2023/05/15 05:23:47;;;;;;;4.25;3.20;;;19.70;46.60;;;;;;5053387;28;20079;-73
2023/05/15 05:26:12;;;;;;;3.38;2.83;;;19.80;46.80;;;;;;5053912;28;20459;-74
2023/05/15 05:28:38;;;;;;;4.55;3.10;;;19.90;46.50;;;;;;5053297;28;20124;-73
2023/05/15 05:31:03;;;;;;;6.07;3.17;;;19.90;46.40;;;;;;5052858;28;20060;-73
2023/05/15 05:33:29;;;;;;;3.20;2.90;;;20.00;46.30;;;;;;5053522;28;20048;-74
2023/05/15 05:35:55;;;;;;;5.07;3.30;;;20.00;46.20;;;;;;5053471;28;20032;-73
2023/05/15 05:38:20;;;;;;;3.80;3.03;;;20.10;46.10;;;;;;5052852;28;20039;-73
2023/05/15 05:40:46;;;;;;;5.22;3.05;;;20.20;46.00;;;;;;5051756;28;20033;-74
2023/05/15 05:43:12;;;;;;;4.07;3.10;;;20.20;45.90;;;;;;5053055;28;20463;-73
2023/05/15 05:45:37;;;;;;;3.88;3.15;;;20.30;45.90;;;;;;5053414;28;20021;-73
2023/05/15 05:48:03;;;;;;;3.85;3.00;;;20.30;45.70;;;;;;5053263;28;20032;-73
2023/05/15 05:50:28;;;;;;;4.80;3.00;;;20.40;45.70;;;;;;5053078;28;20029;-73
2023/05/15 05:52:54;;;;;;;3.60;2.97;;;20.50;45.60;;;;;;5052510;28;20025;-73
2023/05/15 05:55:20;;;;;;;6.53;3.05;;;20.50;45.50;;;;;;5053155;28;20029;-73
2023/05/15 05:57:45;;;;;;;3.80;2.88;;;20.50;45.40;;;;;;5053031;28;20170;-74
2023/05/15 06:00:12;;;;;;;4.10;2.83;;;20.60;45.40;;;;;;5052988;28;20037;-74
2023/05/15 06:02:37;;;;;;;3.42;2.60;;;20.70;45.20;;;;;;5050646;28;20029;-76
2023/05/15 06:05:04;;;;;;;3.15;2.60;;;20.70;45.20;;;;;;5051610;28;20090;-73
2023/05/15 06:07:30;;;;;;;2.92;2.65;;;20.70;45.00;;;;;;5052661;28;20095;-73
2023/05/15 06:09:56;;;;;;;4.00;2.65;;;20.80;45.00;;;;;;5053405;28;20120;-75
2023/05/15 06:12:21;;;;;;;4.20;2.80;;;20.90;44.90;;;;;;5052758;28;20036;-77
2023/05/15 06:14:47;;;;;;;3.20;2.63;;;20.90;44.80;;;;;;5051487;28;20029;-71
2023/05/15 06:17:13;;;;;;;4.32;2.60;;;21.00;44.70;;;;;;5052613;28;20036;-72
2023/05/15 06:19:38;;;;;;;5.70;2.83;;;21.00;44.60;;;;;;5052644;28;20089;-70
2023/05/15 06:22:04;;;;;;;4.18;2.80;;;21.10;44.50;;;;;;5052089;28;20051;-71
2023/05/15 06:24:30;;;;;;;3.97;2.85;;;21.10;44.50;;;;;;5052405;28;20096;-71
2023/05/15 06:26:56;;;;;;;3.63;2.80;;;21.20;44.50;;;;;;5052600;28;20021;-71
2023/05/15 06:29:21;;;;;;;4.60;2.85;;;21.20;44.40;;;;;;5052243;28;20039;-72
2023/05/15 06:31:47;;;;;;;3.63;2.65;;;21.20;44.40;;;;;;5052736;28;20056;-69
2023/05/15 06:34:13;;;;;;;2.92;2.58;;;21.30;44.40;;;;;;5051077;28;20029;-71
2023/05/15 06:36:39;;;;;;;4.97;3.30;;;21.30;44.30;;;;;;5052089;28;20041;-73
2023/05/15 06:39:05;;;;;;;4.38;2.70;;;21.40;44.30;;;;;;5052398;28;20037;-73
2023/05/15 06:41:31;;;;;;;3.38;2.65;;;21.40;44.20;;;;;;5051103;28;20033;-73
2023/05/15 06:43:58;;;;;;;3.58;2.60;;;21.40;44.10;;;;;;5052366;28;20028;-72
2023/05/15 06:46:24;;;;;;;6.22;2.65;;;21.50;44.10;;;;;;5052323;28;20041;-72
2023/05/15 06:48:49;;;;;;;7.05;2.75;;;21.50;44.00;;;;;;5051540;28;20059;-73
2023/05/15 06:51:16;;;;;;;3.70;2.47;;;21.50;43.90;;;;;;5051223;28;20134;-72
2023/05/15 06:53:41;;;;;;;3.08;2.60;;;21.60;44.00;;;;;;5051821;28;20021;-71
2023/05/15 06:56:08;;;;;;;3.95;2.53;;;21.60;44.00;;;;;;5052448;28;20029;-72
2023/05/15 06:58:33;;;;;;;4.32;2.75;;;21.70;43.90;;;;;;5052192;28;20029;-74
2023/05/15 07:01:02;;;;;;;2.83;2.50;;;21.70;43.90;;;;;;5052426;28;20028;-72
2023/05/15 07:03:28;;;;;;;3.67;2.80;;;21.70;43.80;;;;;;5052057;28;20108;-72
2023/05/15 07:05:54;;;;;;;3.30;2.40;;;21.70;43.70;;;;;;5050428;28;20033;-73
2023/05/15 07:08:19;;;;;;;3.85;2.67;;;21.80;43.70;;;;;;5051092;28;20036;-72
2023/05/15 07:10:45;;;;;;;6.25;2.80;;;21.80;43.70;;;;;;5052347;28;20033;-73
2023/05/15 07:13:11;;;;;;;4.03;2.97;;;21.80;43.60;;;;;;5052430;28;20028;-72
2023/05/15 07:15:37;;;;;;;2.72;2.50;;;21.80;43.50;;;;;;5052071;28;20410;-71
2023/05/15 07:18:02;;;;;;;2.70;2.50;;;21.90;43.50;;;;;;5052147;28;20036;-71
2023/05/15 07:20:28;;;;;;;2.85;2.60;;;21.90;43.50;;;;;;5051717;28;20029;-71
2023/05/15 07:22:54;;;;;;;3.35;2.75;;;21.90;43.50;;;;;;5052141;28;20439;-71
2023/05/15 07:25:19;;;;;;;4.18;2.80;;;22.00;43.50;;;;;;5052078;28;20425;-71
2023/05/15 07:27:45;;;;;;;4.70;2.80;;;22.00;43.50;;;;;;5052322;28;20116;-71
2023/05/15 07:30:11;;;;;;;5.95;2.67;;;22.00;43.40;;;;;;5051675;28;20492;-71
2023/05/15 07:32:37;;;;;;;5.03;2.60;;;22.00;43.40;;;;;;5051576;28;20398;-71
2023/05/15 07:35:03;;;;;;;4.18;2.78;;;22.00;43.30;;;;;;5052058;28;20116;-72
2023/05/15 07:37:29;;;;;;;3.70;2.70;;;22.00;43.30;;;;;;5052526;28;20037;-71
2023/05/15 07:39:55;;;;;;;3.72;2.60;;;22.10;43.30;;;;;;5053702;28;20029;-72
2023/05/15 07:42:21;;;;;;;2.55;2.35;;;22.10;43.30;;;;;;5055834;28;20115;-72
2023/05/15 07:44:46;;;;;;;3.03;2.70;;;22.10;43.30;;;;;;5056405;28;20107;-72
2023/05/15 07:47:12;;;;;;;2.80;2.50;;;22.10;43.30;;;;;;5056340;28;20075;-72
2023/05/15 07:49:38;;;;;;;4.72;2.38;;;22.10;43.20;;;;;;5056296;28;20033;-72
2023/05/15 07:52:03;;;;;;;2.88;2.58;;;22.20;43.20;;;;;;5056844;28;20033;-72
2023/05/15 07:54:30;;;;;;;2.92;2.55;;;22.20;43.20;;;;;;5056254;28;20474;-72
2023/05/15 07:56:57;;;;;;;3.47;2.70;;;22.20;43.10;;;;;;5056068;28;20402;-72
2023/05/15 07:59:23;;;;;;;2.40;2.13;;;22.20;43.10;;;;;;5055914;28;20029;-72
2023/05/15 08:01:49;;;;;;;3.05;2.50;;;22.20;43.00;;;;;;5056390;28;20039;-72
2023/05/15 08:04:14;;;;;;;4.63;2.50;;;22.30;43.00;;;;;;5055735;28;20460;-72
2023/05/15 08:06:41;;;;;;;3.00;2.60;;;22.30;42.90;;;;;;5056048;28;20104;-72
2023/05/15 08:09:08;;;;;;;3.10;2.60;;;22.30;42.90;;;;;;5054901;28;20033;-72
2023/05/15 08:11:34;;;;;;;3.15;2.50;;;22.30;42.80;;;;;;5055988;28;20025;-72
2023/05/15 08:14:00;;;;;;;3.63;2.40;;;22.40;42.80;;;;;;5055961;28;20033;-72
2023/05/15 08:16:26;;;;;;;2.78;2.53;;;22.40;42.70;;;;;;5055842;28;20100;-72
2023/05/15 08:18:59;;;;;;;3.33;2.60;;;22.40;42.70;;;;;;5055413;28;20447;-73
2023/05/15 08:21:26;;;;;;;2.67;2.22;;;22.40;42.60;;;;;;5054402;28;20103;-71
2023/05/15 08:23:52;;;;;;;3.17;2.50;;;22.40;42.50;;;;;;5054666;28;20029;-71
2023/05/15 08:26:17;;;;;;;2.80;2.50;;;22.50;42.50;;;;;;5055786;28;20353;-71
2023/05/15 08:28:43;;;;;;;3.45;2.35;;;22.50;42.50;;;;;;5055652;28;20037;-71
2023/05/15 08:31:09;;;;;;;2.90;2.60;;;22.50;42.50;;;;;;5053680;28;20146;-71
2023/05/15 08:33:36;;;;;;;4.68;2.55;;;22.50;42.40;;;;;;5055347;28;20479;-71
2023/05/15 08:36:01;;;;;;;3.40;2.63;;;22.60;42.40;;;;;;5055916;28;20039;-71
2023/05/15 08:38:27;;;;;;;3.13;2.70;;;22.60;42.30;;;;;;5054088;28;20033;-71
2023/05/15 08:40:56;;;;;;;3.95;2.60;;;22.70;42.30;;;;;;5055270;28;20079;-71
2023/05/15 08:43:24;;;;;;;2.50;2.28;;;22.70;42.20;;;;;;5053960;28;20035;-71
2023/05/15 08:45:50;;;;;;;3.03;2.47;;;22.70;42.20;;;;;;5054747;28;20108;-71
2023/05/15 08:48:19;;;;;;;4.20;2.40;;;22.80;42.20;;;;;;5054077;28;20060;-71
2023/05/15 08:50:46;;;;;;;3.38;2.67;;;22.80;42.10;;;;;;5055356;28;20515;-71
2023/05/15 08:53:12;;;;;;;4.20;2.65;;;22.90;42.10;;;;;;5055033;28;20029;-71
2023/05/15 08:55:38;;;;;;;6.07;2.40;;;22.90;42.00;;;;;;5054995;28;20070;-71
2023/05/15 08:58:04;;;;;;;3.40;2.55;;;22.90;41.90;;;;;;5054921;28;20028;-71
2023/05/15 09:00:31;;;;;;;4.45;2.65;;;23.00;41.90;;;;;;5036949;28;20033;-71
2023/05/15 09:03:00;;;;;;;2.95;2.60;;;23.00;41.90;;;;;;5055170;28;20550;-71
2023/05/15 09:05:27;;;;;;;3.53;2.63;;;23.00;41.80;;;;;;5054875;28;20021;-72
2023/05/15 09:07:54;;;;;;;3.50;2.80;;;23.00;41.80;;;;;;5054878;28;20557;-70
2023/05/15 09:10:20;;;;;;;4.03;2.55;;;23.00;41.70;;;;;;5053397;28;20052;-72
2023/05/15 09:12:49;;;;;;;4.18;2.70;;;23.10;41.70;;;;;;5054846;28;20111;-70
2023/05/15 09:15:17;;;;;;;5.30;2.78;;;23.10;41.60;;;;;;5054456;28;20032;-73
2023/05/15 09:17:43;;;;;;;4.38;2.88;;;23.20;41.60;;;;;;5053846;28;20433;-72
2023/05/15 09:20:35;;;;;;;7.80;2.80;;;23.20;41.50;;;;;;5053280;28;20037;-70
2023/05/15 09:23:03;;;;;;;4.43;3.05;;;23.30;41.30;;;;;;5054226;28;20041;-72
2023/05/15 09:25:51;;;;;;;5.47;2.92;;;23.30;41.30;;;;;;5054374;28;20021;-70
2023/05/15 09:28:29;;;;;;;3.97;2.80;;;23.40;41.20;;;;;;5054264;28;20489;-70
2023/05/15 09:31:03;;;;;;;4.45;2.92;;;23.40;41.50;;;;;;5052535;28;20052;-72
2023/05/15 09:33:33;;;;;;;3.92;2.88;;;23.40;41.10;;;;;;5054082;28;20025;-71
2023/05/15 09:35:59;;;;;;;4.18;2.55;;;23.40;41.00;;;;;;5052644;28;20361;-70
2023/05/15 09:38:25;;;;;;;3.78;2.70;;;23.40;41.60;;;;;;5054444;28;20127;-72
2023/05/15 09:41:03;;;;;;;3.42;2.50;;;23.50;41.10;;;;;;5052955;28;20178;-72
2023/05/15 09:43:33;;;;;;;3.33;2.60;;;23.50;41.00;;;;;;5053993;28;20058;-70
2023/05/15 09:45:59;;;;;;;3.13;2.45;;;23.50;40.90;;;;;;5052718;28;20024;-71
2023/05/15 09:48:24;;;;;;;2.72;2.33;;;23.50;40.80;;;;;;5053694;28;20536;-72
2023/05/15 09:50:50;;;;;;;2.63;2.40;;;23.50;40.80;;;;;;5053490;28;20079;-72
2023/05/15 09:53:16;;;;;;;3.20;2.40;;;23.60;40.80;;;;;;5054009;28;20025;-71
2023/05/15 09:55:42;;;;;;;2.58;2.20;;;23.60;40.70;;;;;;5053096;28;20036;-71
2023/05/15 09:58:13;;;;;;;2.58;2.20;;;23.60;40.70;;;;;;5053679;28;20414;-72
2023/05/15 10:00:40;;;;;;;4.03;2.28;;;23.60;40.70;;;;;;5052590;28;20032;-71
2023/05/15 10:03:06;;;;;;;2.70;2.10;;;23.70;40.70;;;;;;5053514;28;20024;-72
2023/05/15 10:05:32;;;;;;;3.13;2.30;;;23.60;40.60;;;;;;5053624;28;20395;-72
2023/05/15 10:07:59;;;;;;;3.17;2.40;;;23.60;40.70;;;;;;5052360;28;20487;-72
2023/05/15 10:10:26;;;;;;;2.63;2.42;;;23.60;40.70;;;;;;5053640;28;20037;-72
2023/05/15 10:12:53;;;;;;;2.63;2.25;;;23.70;40.80;;;;;;5053303;28;20021;-71
2023/05/15 10:15:21;;;;;;;2.58;2.22;;;23.70;40.70;;;;;;5053436;28;20060;-71
2023/05/15 10:17:48;;;;;;;3.63;2.30;;;23.70;40.70;;;;;;5053642;28;20029;-71
2023/05/15 10:20:19;;;;;;;3.88;2.35;;;23.80;40.70;;;;;;5052177;28;20556;-71
2023/05/15 10:22:53;;;;;;;2.83;2.15;;;23.80;40.60;;;;;;5052219;28;20025;-71
2023/05/15 10:25:46;;;;;;;3.75;2.20;;;23.90;40.50;;;;;;5053415;28;20028;-72
2023/05/15 10:28:14;;;;;;;3.13;2.38;;;23.90;40.30;;;;;;5052385;28;20508;-72
2023/05/15 10:30:41;;;;;;;3.03;2.35;;;23.90;40.40;;;;;;5053206;28;20029;-72
2023/05/15 10:33:07;;;;;;;2.55;2.03;;;23.90;40.40;;;;;;5052590;28;20387;-72
2023/05/15 10:35:35;;;;;;;2.70;2.15;;;23.90;40.40;;;;;;5051985;28;20029;-72
2023/05/15 10:38:03;;;;;;;2.33;2.13;;;23.90;40.30;;;;;;5052998;28;20456;-72
2023/05/15 10:40:31;;;;;;;3.20;2.38;;;23.90;40.20;;;;;;5053129;28;20098;-72
2023/05/15 10:43:00;;;;;;;2.17;1.98;;;23.90;40.20;;;;;;5052935;28;20028;-72
2023/05/15 10:45:27;;;;;;;4.88;2.03;;;24.00;40.20;;;;;;5052006;28;20115;-70
2023/05/15 10:47:53;;;;;;;2.60;1.90;;;24.00;40.20;;;;;;5051997;28;20514;-72
2023/05/15 10:50:19;;;;;;;3.40;1.98;;;24.00;40.10;;;;;;5052215;28;20056;-72
2023/05/15 10:52:45;;;;;;;3.63;2.20;;;24.10;40.00;;;;;;5053430;28;20466;-72
2023/05/15 10:55:16;;;;;;;2.20;2.00;;;24.10;39.90;;;;;;5051520;28;20025;-72
2023/05/15 10:57:46;;;;;;;2.60;1.95;;;24.10;39.90;;;;;;5053502;28;20029;-72
2023/05/15 11:00:21;;;;;;;2.88;2.10;;;24.20;39.80;;;;;;5053267;28;20114;-72
2023/05/15 11:02:47;;;;;;;2.78;2.20;;;24.20;39.80;;;;;;5052946;28;20025;-72
2023/05/15 11:05:13;;;;;;;2.17;1.98;;;24.20;39.80;;;;;;5053067;28;20045;-71
2023/05/15 11:07:39;;;;;;;2.25;2.05;;;24.30;39.70;;;;;;5053024;28;20056;-72
2023/05/15 11:10:35;;;;;;;2.30;2.10;;;24.30;39.60;;;;;;5053107;28;20036;-72
2023/05/15 11:13:01;;;;;;;2.35;1.90;;;24.40;39.30;;;;;;5052250;28;20033;-71
2023/05/15 11:15:41;;;;;;;2.58;2.08;;;24.40;39.40;;;;;;5055653;28;20114;-71
2023/05/15 11:18:07;;;;;;;3.38;2.00;;;24.50;39.30;;;;;;5055475;28;20029;-71
2023/05/15 11:20:41;;;;;;;2.75;1.85;;;24.50;39.30;;;;;;5056724;28;20541;-72
2023/05/15 11:23:07;;;;;;;2.25;2.00;;;24.60;39.30;;;;;;5056700;28;20021;-71
2023/05/15 11:25:34;;;;;;;2.55;2.10;;;24.60;39.30;;;;;;5055288;28;20025;-72
2023/05/15 11:28:02;;;;;;;2.70;1.90;;;24.60;39.30;;;;;;5056753;28;20056;-71
2023/05/15 11:30:42;;;;;;;2.53;2.08;;;24.60;39.30;;;;;;5054895;28;20029;-73
2023/05/15 11:33:12;;;;;;;2.28;2.10;;;24.60;39.30;;;;;;5056559;28;20521;-72
2023/05/15 11:35:41;;;;;;;2.20;2.00;;;24.60;39.30;;;;;;5056987;28;20435;-71
2023/05/15 11:38:17;;;;;;;2.55;2.08;;;24.60;39.90;;;;;;5055539;28;20025;-72
2023/05/15 11:40:43;;;;;;;2.45;2.25;;;24.60;39.30;;;;;;5056097;28;20029;-72
2023/05/15 11:43:29;;;;;;;2.75;2.10;;;24.60;39.30;;;;;;5054445;28;20037;-71
2023/05/15 11:45:56;;;;;;;2.72;2.28;;;24.60;39.20;;;;;;5056087;28;20420;-71
2023/05/15 11:48:31;;;;;;;2.13;1.92;;;24.60;39.20;;;;;;5054875;28;20352;-73
2023/05/15 11:50:57;;;;;;;2.88;2.00;;;24.60;39.10;;;;;;5055991;28;20021;-72
2023/05/15 11:53:23;;;;;;;2.63;2.10;;;24.60;39.10;;;;;;5055992;28;20544;-72
2023/05/15 11:55:53;;;;;;;3.20;2.00;;;24.70;39.10;;;;;;5054989;28;20025;-72
2023/05/15 11:58:20;;;;;;;3.17;2.00;;;24.70;39.10;;;;;;5055901;28;20110;-72
2023/05/15 12:00:48;;;;;;;2.17;1.73;;;24.60;39.10;;;;;;5055918;28;20032;-71
2023/05/15 12:03:23;;;;;;;1.90;1.70;;;24.70;39.10;;;;;;5055985;28;20367;-71
2023/05/15 12:05:50;;;;;;;2.33;1.95;;;24.70;39.10;;;;;;5054515;28;20091;-71
2023/05/15 12:08:16;;;;;;;2.25;2.05;;;24.70;39.10;;;;;;5054402;28;20079;-71
2023/05/15 12:10:43;;;;;;;3.30;1.80;;;24.70;39.10;;;;;;5055940;28;20021;-71
2023/05/15 12:13:13;;;;;;;2.20;2.00;;;24.80;39.10;;;;;;5056106;28;20032;-71
2023/05/15 12:15:44;;;;;;;2.40;1.92;;;24.80;39.00;;;;;;5056009;28;20112;-71
2023/05/15 12:18:10;;;;;;;2.00;1.80;;;24.90;39.00;;;;;;5055608;28;20071;-71
2023/05/15 12:20:37;;;;;;;2.63;2.08;;;24.90;38.90;;;;;;5055383;28;20069;-71
2023/05/15 12:23:05;;;;;;;2.00;1.80;;;25.00;38.80;;;;;;5055754;28;20033;-71
2023/05/15 12:25:35;;;;;;;2.15;1.95;;;25.00;38.80;;;;;;5055355;28;20063;-71
2023/05/15 12:28:02;;;;;;;4.22;2.00;;;25.10;38.70;;;;;;5054255;28;20032;-72
2023/05/15 12:30:32;;;;;;;2.35;2.00;;;25.10;38.60;;;;;;5055234;28;20041;-71
2023/05/15 12:33:04;;;;;;;1.85;1.75;;;25.30;38.60;;;;;;5055392;28;20021;-71
2023/05/15 12:35:34;;;;;;;2.05;1.85;;;25.30;38.50;;;;;;5055387;28;20031;-72
2023/05/15 12:38:05;;;;;;;3.35;1.92;;;25.40;38.50;;;;;;5055663;28;20036;-72
2023/05/15 12:40:35;;;;;;;2.03;1.67;;;25.50;38.40;;;;;;5055436;28;20111;-71
2023/05/15 12:43:05;;;;;;;2.60;2.10;;;25.50;38.30;;;;;;5055353;28;20352;-71
2023/05/15 12:45:37;;;;;;;2.35;1.98;;;25.60;38.30;;;;;;5055105;28;20052;-71
2023/05/15 12:48:03;;;;;;;2.53;2.00;;;25.70;38.20;;;;;;5055545;28;20053;-71